WMT9607 LIPH-LRIA
Flight info
| Callsign | WMT9607 |
|---|---|
| Flight time | 1h 53m |
| Altitude | 19000 |
| Route | INBUT N503 LAREN/N0362F180 Q561 AKADO/N0366F190 L615 TULIK/N0448F340 DCT ROSKA/N0451F350 DCT BARPI DCT ZARVE DCT KOPRY DCT BUDOP DCT IXUBA DCT GUXVA DCT LESVO |
| Aircraft | A321/M-SDE1E2E3FGIJ1J4RWXY/LB1 |
Departure
| Time | 2026-04-22 20:54 |
|---|---|
| Airport | Treviso Airport (LIPH) |
Arrival
| Time | 2026-04-22 22:48 |
|---|---|
| Airport | Iaşi International Airport (LRIA) |
| Time | Latitude | Longitude | Altitude | Speed | Heading |
|---|---|---|---|---|---|
| 2026-04-22 20:38 | 45.65371 | 12.20376 | 63 ft | 0 kts | 339° |
| 2026-04-22 20:47 | 45.65355 | 12.20384 | 55 ft | 4 kts | 336° |
| 2026-04-22 20:47 | 45.65332 | 12.20400 | 54 ft | 4 kts | 342° |
| 2026-04-22 20:47 | 45.65317 | 12.20398 | 56 ft | 4 kts | 26° |
| 2026-04-22 20:47 | 45.65299 | 12.20374 | 58 ft | 4 kts | 67° |
| 2026-04-22 20:48 | 45.65290 | 12.20339 | 58 ft | 2 kts | 68° |
| 2026-04-22 20:48 | 45.65289 | 12.20336 | 54 ft | 0 kts | 67° |
| 2026-04-22 20:52 | 45.65290 | 12.20339 | 58 ft | 2 kts | 67° |
| 2026-04-22 20:52 | 45.65308 | 12.20398 | 55 ft | 11 kts | 67° |
| 2026-04-22 20:52 | 45.65338 | 12.20513 | 56 ft | 13 kts | 70° |
| 2026-04-22 20:52 | 45.65372 | 12.20644 | 58 ft | 15 kts | 70° |
| 2026-04-22 20:53 | 45.65371 | 12.20729 | 56 ft | 9 kts | 133° |
| 2026-04-22 20:53 | 45.65311 | 12.20759 | 57 ft | 10 kts | 160° |
| 2026-04-22 20:53 | 45.65243 | 12.20792 | 60 ft | 10 kts | 164° |
| 2026-04-22 20:53 | 45.65203 | 12.20731 | 57 ft | 9 kts | 243° |
| 2026-04-22 20:54 | 45.65141 | 12.20498 | 59 ft | 58 kts | 249° |
| 2026-04-22 20:54 | 45.64915 | 12.19648 | 54 ft | 125 kts | 249° |
| 2026-04-22 20:54 | 45.64544 | 12.18244 | 127 ft | 170 kts | 250° |
| 2026-04-22 20:54 | 45.64141 | 12.16713 | 888 ft | 162 kts | 249° |
| 2026-04-22 20:55 | 45.63712 | 12.15225 | 1507 ft | 165 kts | 247° |
| 2026-04-22 20:55 | 45.63219 | 12.13637 | 1777 ft | 186 kts | 246° |
| 2026-04-22 20:55 | 45.62659 | 12.11846 | 2014 ft | 208 kts | 246° |
| 2026-04-22 20:55 | 45.62036 | 12.09854 | 2187 ft | 232 kts | 246° |
| 2026-04-22 20:56 | 45.61330 | 12.07653 | 2561 ft | 252 kts | 245° |
| 2026-04-22 20:56 | 45.60590 | 12.05395 | 3286 ft | 257 kts | 245° |
| 2026-04-22 20:56 | 45.59822 | 12.03063 | 4020 ft | 262 kts | 245° |
| 2026-04-22 20:56 | 45.59040 | 12.00686 | 4764 ft | 267 kts | 245° |
| 2026-04-22 20:57 | 45.58249 | 11.98269 | 5501 ft | 271 kts | 245° |
| 2026-04-22 20:57 | 45.57446 | 11.95808 | 6235 ft | 276 kts | 244° |
| 2026-04-22 20:57 | 45.56625 | 11.93301 | 6936 ft | 281 kts | 245° |
| 2026-04-22 20:57 | 45.55791 | 11.90751 | 7651 ft | 285 kts | 246° |
| 2026-04-22 20:58 | 45.54948 | 11.88178 | 8392 ft | 288 kts | 246° |
| 2026-04-22 20:58 | 45.54052 | 11.85591 | 9090 ft | 294 kts | 239° |
| 2026-04-22 20:58 | 45.52653 | 11.83497 | 9771 ft | 301 kts | 214° |
| 2026-04-22 20:58 | 45.50705 | 11.82363 | 10416 ft | 307 kts | 188° |
| 2026-04-22 20:59 | 45.48578 | 11.82499 | 11037 ft | 309 kts | 161° |
| 2026-04-22 20:59 | 45.46659 | 11.83879 | 11418 ft | 317 kts | 136° |
| 2026-04-22 20:59 | 45.45072 | 11.86187 | 11565 ft | 337 kts | 129° |
| 2026-04-22 20:59 | 45.43439 | 11.88704 | 11840 ft | 352 kts | 129° |
| 2026-04-22 21:00 | 45.41727 | 11.91253 | 12413 ft | 359 kts | 135° |
| 2026-04-22 21:00 | 45.39803 | 11.93557 | 13051 ft | 364 kts | 139° |
| 2026-04-22 21:00 | 45.37812 | 11.95735 | 13706 ft | 368 kts | 140° |
| 2026-04-22 21:00 | 45.35740 | 11.97896 | 14321 ft | 371 kts | 141° |
| 2026-04-22 21:01 | 45.33639 | 12.00055 | 14894 ft | 375 kts | 142° |
| 2026-04-22 21:01 | 45.31661 | 12.02467 | 15470 ft | 375 kts | 129° |
| 2026-04-22 21:01 | 45.30149 | 12.05462 | 16032 ft | 373 kts | 115° |
| 2026-04-22 21:01 | 45.29205 | 12.08878 | 16603 ft | 372 kts | 101° |
| 2026-04-22 21:02 | 45.28848 | 12.12506 | 17163 ft | 371 kts | 87° |
| 2026-04-22 21:02 | 45.29076 | 12.16142 | 17718 ft | 370 kts | 76° |
| 2026-04-22 21:02 | 45.29542 | 12.19704 | 18279 ft | 374 kts | 76° |
| 2026-04-22 21:02 | 45.30012 | 12.23349 | 18799 ft | 377 kts | 76° |
| 2026-04-22 21:03 | 45.30479 | 12.27035 | 19303 ft | 381 kts | 76° |
| 2026-04-22 21:03 | 45.30945 | 12.30757 | 19810 ft | 384 kts | 76° |
| 2026-04-22 21:03 | 45.31410 | 12.34508 | 20326 ft | 387 kts | 76° |
| 2026-04-22 21:03 | 45.31878 | 12.38291 | 20839 ft | 390 kts | 76° |
| 2026-04-22 21:04 | 45.32353 | 12.42106 | 21345 ft | 394 kts | 76° |
| 2026-04-22 21:04 | 45.32827 | 12.45956 | 21839 ft | 398 kts | 78° |
| 2026-04-22 21:04 | 45.32997 | 12.49921 | 22339 ft | 407 kts | 88° |
| 2026-04-22 21:04 | 45.32677 | 12.53899 | 22796 ft | 415 kts | 98° |
| 2026-04-22 21:05 | 45.31997 | 12.57912 | 23257 ft | 420 kts | 99° |
| 2026-04-22 21:05 | 45.31297 | 12.61956 | 23709 ft | 423 kts | 99° |
| 2026-04-22 21:05 | 45.30596 | 12.66032 | 24088 ft | 426 kts | 99° |
| 2026-04-22 21:05 | 45.29912 | 12.70146 | 24450 ft | 428 kts | 96° |
| 2026-04-22 21:06 | 45.29587 | 12.74333 | 24791 ft | 426 kts | 86° |
| 2026-04-22 21:06 | 45.29762 | 12.78511 | 25141 ft | 423 kts | 76° |
| 2026-04-22 21:06 | 45.30419 | 12.82564 | 25482 ft | 420 kts | 66° |
| 2026-04-22 21:06 | 45.31525 | 12.86378 | 25847 ft | 417 kts | 58° |
| 2026-04-22 21:07 | 45.32890 | 12.89956 | 26189 ft | 418 kts | 56° |
| 2026-04-22 21:07 | 45.34348 | 12.93539 | 26544 ft | 420 kts | 54° |
| 2026-04-22 21:07 | 45.35854 | 12.97108 | 26879 ft | 422 kts | 53° |
| 2026-04-22 21:07 | 45.37386 | 13.00686 | 27221 ft | 425 kts | 53° |
| 2026-04-22 21:08 | 45.38923 | 13.04294 | 27555 ft | 428 kts | 54° |
| 2026-04-22 21:08 | 45.40452 | 13.07938 | 27882 ft | 431 kts | 54° |
| 2026-04-22 21:08 | 45.41977 | 13.11623 | 28227 ft | 433 kts | 55° |
| 2026-04-22 21:08 | 45.43502 | 13.15335 | 28574 ft | 435 kts | 55° |
| 2026-04-22 21:09 | 45.45029 | 13.19069 | 28912 ft | 437 kts | 55° |
| 2026-04-22 21:09 | 45.46542 | 13.22773 | 29220 ft | 440 kts | 55° |
| 2026-04-22 21:09 | 45.48085 | 13.26549 | 29525 ft | 442 kts | 55° |
| 2026-04-22 21:09 | 45.49637 | 13.30346 | 29828 ft | 445 kts | 55° |
| 2026-04-22 21:10 | 45.51198 | 13.34164 | 30158 ft | 447 kts | 55° |
| 2026-04-22 21:10 | 45.52767 | 13.37999 | 30479 ft | 448 kts | 55° |
| 2026-04-22 21:10 | 45.54341 | 13.41847 | 30752 ft | 450 kts | 55° |
| 2026-04-22 21:10 | 45.55912 | 13.45704 | 31108 ft | 449 kts | 55° |
| 2026-04-22 21:11 | 45.57476 | 13.49558 | 31480 ft | 448 kts | 57° |
| 2026-04-22 21:11 | 45.58828 | 13.53576 | 31857 ft | 451 kts | 65° |
| 2026-04-22 21:11 | 45.59802 | 13.57783 | 32195 ft | 453 kts | 69° |
| 2026-04-22 21:11 | 45.60746 | 13.62074 | 32521 ft | 453 kts | 68° |
| 2026-04-22 21:12 | 45.61697 | 13.66359 | 32842 ft | 453 kts | 68° |
| 2026-04-22 21:12 | 45.62651 | 13.70639 | 33157 ft | 452 kts | 68° |
| 2026-04-22 21:12 | 45.63604 | 13.74922 | 33465 ft | 452 kts | 68° |
| 2026-04-22 21:12 | 45.64554 | 13.79214 | 33769 ft | 453 kts | 68° |
| 2026-04-22 21:13 | 45.65497 | 13.83502 | 34091 ft | 453 kts | 69° |
| 2026-04-22 21:13 | 45.66437 | 13.87797 | 34354 ft | 453 kts | 69° |
| 2026-04-22 21:13 | 45.67378 | 13.92095 | 34592 ft | 453 kts | 69° |
| 2026-04-22 21:13 | 45.68308 | 13.96338 | 34830 ft | 453 kts | 69° |
| 2026-04-22 21:14 | 45.69247 | 14.00634 | 35073 ft | 453 kts | 69° |
| 2026-04-22 21:14 | 45.70185 | 14.04945 | 35214 ft | 454 kts | 69° |
| 2026-04-22 21:14 | 45.72035 | 14.13496 | 35249 ft | 448 kts | 69° |
| 2026-04-22 21:15 | 45.73873 | 14.22000 | 35252 ft | 447 kts | 69° |
| 2026-04-22 21:15 | 45.75694 | 14.30441 | 35250 ft | 446 kts | 69° |
| 2026-04-22 21:16 | 45.77514 | 14.38929 | 35248 ft | 446 kts | 70° |
| 2026-04-22 21:16 | 45.79323 | 14.47418 | 35246 ft | 446 kts | 70° |
| 2026-04-22 21:17 | 45.81132 | 14.55917 | 35248 ft | 446 kts | 70° |
| 2026-04-22 21:17 | 45.82938 | 14.64430 | 35250 ft | 446 kts | 70° |
| 2026-04-22 21:18 | 45.84723 | 14.72887 | 35268 ft | 446 kts | 70° |
| 2026-04-22 21:18 | 45.86509 | 14.81406 | 35265 ft | 446 kts | 70° |
| 2026-04-22 21:19 | 45.88287 | 14.89924 | 35262 ft | 445 kts | 70° |
| 2026-04-22 21:19 | 45.90023 | 14.98452 | 35258 ft | 446 kts | 71° |
| 2026-04-22 21:20 | 45.91587 | 15.07008 | 35259 ft | 446 kts | 72° |
| 2026-04-22 21:20 | 45.93096 | 15.15649 | 35260 ft | 446 kts | 72° |
| 2026-04-22 21:21 | 45.94620 | 15.24288 | 35265 ft | 446 kts | 72° |
| 2026-04-22 21:21 | 45.96168 | 15.32908 | 35270 ft | 445 kts | 72° |
| 2026-04-22 21:22 | 45.97713 | 15.41514 | 35268 ft | 444 kts | 72° |
| 2026-04-22 21:22 | 45.99230 | 15.50058 | 35269 ft | 444 kts | 72° |
| 2026-04-22 21:23 | 46.00743 | 15.58661 | 35268 ft | 444 kts | 72° |
| 2026-04-22 21:23 | 46.02249 | 15.67266 | 35263 ft | 443 kts | 72° |
| 2026-04-22 21:24 | 46.03753 | 15.75866 | 35260 ft | 443 kts | 73° |
| 2026-04-22 21:24 | 46.05239 | 15.84416 | 35260 ft | 443 kts | 73° |
| 2026-04-22 21:25 | 46.06721 | 15.93026 | 35260 ft | 443 kts | 73° |
| 2026-04-22 21:25 | 46.08204 | 16.01629 | 35264 ft | 442 kts | 73° |
| 2026-04-22 21:26 | 46.09685 | 16.10209 | 35271 ft | 441 kts | 73° |
| 2026-04-22 21:26 | 46.11139 | 16.18733 | 35262 ft | 441 kts | 73° |
| 2026-04-22 21:27 | 46.12591 | 16.27314 | 35248 ft | 441 kts | 73° |
| 2026-04-22 21:27 | 46.14037 | 16.35900 | 35248 ft | 440 kts | 73° |
| 2026-04-22 21:28 | 46.15484 | 16.44482 | 35245 ft | 441 kts | 73° |
| 2026-04-22 21:28 | 46.16911 | 16.53015 | 35244 ft | 440 kts | 73° |
| 2026-04-22 21:29 | 46.18342 | 16.61600 | 35258 ft | 440 kts | 73° |
| 2026-04-22 21:29 | 46.19759 | 16.70168 | 35246 ft | 438 kts | 74° |
| 2026-04-22 21:30 | 46.21164 | 16.78722 | 35243 ft | 437 kts | 74° |
| 2026-04-22 21:30 | 46.22552 | 16.87202 | 35238 ft | 437 kts | 74° |
| 2026-04-22 21:31 | 46.23941 | 16.95737 | 35237 ft | 436 kts | 75° |
| 2026-04-22 21:31 | 46.25109 | 17.04347 | 35243 ft | 437 kts | 77° |
| 2026-04-22 21:32 | 46.26072 | 17.13027 | 35231 ft | 437 kts | 78° |
| 2026-04-22 21:32 | 46.27029 | 17.21702 | 35227 ft | 437 kts | 78° |
| 2026-04-22 21:33 | 46.28023 | 17.30297 | 35231 ft | 436 kts | 78° |
| 2026-04-22 21:33 | 46.29034 | 17.38927 | 35225 ft | 435 kts | 78° |
| 2026-04-22 21:34 | 46.30037 | 17.47542 | 35234 ft | 434 kts | 78° |
| 2026-04-22 21:34 | 46.31021 | 17.56151 | 35220 ft | 433 kts | 78° |
| 2026-04-22 21:35 | 46.31984 | 17.64690 | 35220 ft | 433 kts | 78° |
| 2026-04-22 21:35 | 46.32952 | 17.73281 | 35205 ft | 433 kts | 78° |
| 2026-04-22 21:36 | 46.33910 | 17.81868 | 35210 ft | 432 kts | 78° |
| 2026-04-22 21:36 | 46.34868 | 17.90457 | 35200 ft | 432 kts | 78° |
| 2026-04-22 21:37 | 46.35817 | 17.99047 | 35204 ft | 432 kts | 78° |
| 2026-04-22 21:37 | 46.36747 | 18.07589 | 35213 ft | 432 kts | 78° |
| 2026-04-22 21:38 | 46.37676 | 18.16164 | 35199 ft | 430 kts | 78° |
| 2026-04-22 21:38 | 46.38603 | 18.24714 | 35197 ft | 429 kts | 78° |
| 2026-04-22 21:39 | 46.39518 | 18.33249 | 35196 ft | 428 kts | 79° |
| 2026-04-22 21:39 | 46.40422 | 18.41714 | 35204 ft | 428 kts | 79° |
| 2026-04-22 21:40 | 46.41325 | 18.50237 | 35191 ft | 428 kts | 79° |
| 2026-04-22 21:40 | 46.42216 | 18.58755 | 35189 ft | 427 kts | 79° |
| 2026-04-22 21:41 | 46.43099 | 18.67270 | 35177 ft | 427 kts | 79° |
| 2026-04-22 21:41 | 46.43968 | 18.75720 | 35175 ft | 427 kts | 79° |
| 2026-04-22 21:42 | 46.44840 | 18.84229 | 35185 ft | 426 kts | 79° |
| 2026-04-22 21:42 | 46.45701 | 18.92734 | 35181 ft | 426 kts | 79° |
| 2026-04-22 21:43 | 46.46559 | 19.01237 | 35174 ft | 426 kts | 79° |
| 2026-04-22 21:43 | 46.47408 | 19.09733 | 35177 ft | 426 kts | 79° |
| 2026-04-22 21:44 | 46.48249 | 19.18169 | 35179 ft | 425 kts | 79° |
| 2026-04-22 21:44 | 46.49096 | 19.26664 | 35171 ft | 425 kts | 79° |
| 2026-04-22 21:45 | 46.49930 | 19.35163 | 35177 ft | 425 kts | 79° |
| 2026-04-22 21:45 | 46.50752 | 19.43666 | 35171 ft | 426 kts | 79° |
| 2026-04-22 21:46 | 46.51560 | 19.52117 | 35172 ft | 426 kts | 80° |
| 2026-04-22 21:46 | 46.52374 | 19.60634 | 35163 ft | 425 kts | 79° |
| 2026-04-22 21:47 | 46.53178 | 19.69133 | 35167 ft | 424 kts | 80° |
| 2026-04-22 21:47 | 46.53975 | 19.77613 | 35178 ft | 423 kts | 80° |
| 2026-04-22 21:48 | 46.54768 | 19.86075 | 35168 ft | 422 kts | 80° |
| 2026-04-22 21:48 | 46.55553 | 19.94468 | 35165 ft | 422 kts | 80° |
| 2026-04-22 21:49 | 46.56326 | 20.02919 | 35164 ft | 422 kts | 80° |
| 2026-04-22 21:49 | 46.57089 | 20.11367 | 35164 ft | 422 kts | 80° |
| 2026-04-22 21:50 | 46.57852 | 20.19811 | 35169 ft | 421 kts | 80° |
| 2026-04-22 21:50 | 46.58601 | 20.28202 | 35164 ft | 421 kts | 80° |
| 2026-04-22 21:51 | 46.59344 | 20.36647 | 35159 ft | 421 kts | 80° |
| 2026-04-22 21:52 | 46.60455 | 20.49290 | 35163 ft | 419 kts | 80° |
| 2026-04-22 21:52 | 46.61183 | 20.57639 | 35163 ft | 418 kts | 80° |
| 2026-04-22 21:53 | 46.61903 | 20.66028 | 35174 ft | 418 kts | 80° |
| 2026-04-22 21:53 | 46.62620 | 20.74416 | 35164 ft | 418 kts | 80° |
| 2026-04-22 21:54 | 46.63332 | 20.82823 | 35154 ft | 419 kts | 81° |
| 2026-04-22 21:54 | 46.64033 | 20.91234 | 35155 ft | 419 kts | 81° |
| 2026-04-22 21:55 | 46.64725 | 20.99595 | 35160 ft | 419 kts | 81° |
| 2026-04-22 21:55 | 46.65422 | 21.08018 | 35157 ft | 419 kts | 81° |
| 2026-04-22 21:56 | 46.66113 | 21.16443 | 35154 ft | 420 kts | 81° |
| 2026-04-22 21:56 | 46.66790 | 21.24877 | 35158 ft | 419 kts | 81° |
| 2026-04-22 21:57 | 46.67458 | 21.33251 | 35161 ft | 419 kts | 81° |
| 2026-04-22 21:57 | 46.68123 | 21.41666 | 35160 ft | 418 kts | 81° |
| 2026-04-22 21:58 | 46.68719 | 21.50087 | 35153 ft | 419 kts | 86° |
| 2026-04-22 21:58 | 46.68560 | 21.58595 | 35167 ft | 420 kts | 89° |
| 2026-04-22 21:59 | 46.68369 | 21.67049 | 35155 ft | 421 kts | 89° |
| 2026-04-22 21:59 | 46.68168 | 21.75576 | 35151 ft | 421 kts | 89° |
| 2026-04-22 22:00 | 46.67967 | 21.84106 | 35152 ft | 422 kts | 89° |
| 2026-04-22 22:00 | 46.67760 | 21.92639 | 35152 ft | 422 kts | 89° |
| 2026-04-22 22:01 | 46.67543 | 22.01115 | 35165 ft | 422 kts | 89° |
| 2026-04-22 22:01 | 46.67322 | 22.09657 | 35161 ft | 422 kts | 89° |
| 2026-04-22 22:02 | 46.67092 | 22.18208 | 35157 ft | 423 kts | 89° |
| 2026-04-22 22:02 | 46.66849 | 22.26765 | 35160 ft | 423 kts | 89° |
| 2026-04-22 22:03 | 46.66601 | 22.35269 | 35159 ft | 423 kts | 89° |
| 2026-04-22 22:03 | 46.66352 | 22.43823 | 35186 ft | 423 kts | 89° |
| 2026-04-22 22:04 | 46.66098 | 22.52397 | 35165 ft | 424 kts | 90° |
| 2026-04-22 22:04 | 46.65832 | 22.60984 | 35170 ft | 425 kts | 90° |
| 2026-04-22 22:05 | 46.65559 | 22.69525 | 35169 ft | 426 kts | 90° |
| 2026-04-22 22:05 | 46.65281 | 22.78137 | 35175 ft | 426 kts | 90° |
| 2026-04-22 22:06 | 46.64998 | 22.86746 | 35186 ft | 426 kts | 90° |
| 2026-04-22 22:06 | 46.64704 | 22.95367 | 35176 ft | 427 kts | 90° |
| 2026-04-22 22:07 | 46.64411 | 23.04005 | 35173 ft | 428 kts | 90° |
| 2026-04-22 22:07 | 46.64112 | 23.12590 | 35168 ft | 428 kts | 90° |
| 2026-04-22 22:08 | 46.63799 | 23.21237 | 35170 ft | 428 kts | 90° |
| 2026-04-22 22:08 | 46.63481 | 23.29888 | 35179 ft | 428 kts | 90° |
| 2026-04-22 22:09 | 46.63157 | 23.38549 | 35166 ft | 429 kts | 90° |
| 2026-04-22 22:09 | 46.62824 | 23.47169 | 35134 ft | 430 kts | 90° |
| 2026-04-22 22:10 | 46.62479 | 23.55837 | 35138 ft | 429 kts | 90° |
| 2026-04-22 22:10 | 46.62136 | 23.64501 | 35134 ft | 429 kts | 90° |
| 2026-04-22 22:11 | 46.61790 | 23.73153 | 35161 ft | 429 kts | 90° |
| 2026-04-22 22:11 | 46.61432 | 23.81758 | 35143 ft | 429 kts | 90° |
| 2026-04-22 22:12 | 46.61063 | 23.90430 | 35132 ft | 430 kts | 91° |
| 2026-04-22 22:12 | 46.60842 | 23.99100 | 35123 ft | 427 kts | 83° |
| 2026-04-22 22:13 | 46.61358 | 24.07706 | 35129 ft | 427 kts | 83° |
| 2026-04-22 22:13 | 46.61848 | 24.16255 | 35139 ft | 427 kts | 83° |
| 2026-04-22 22:14 | 46.62327 | 24.24873 | 35128 ft | 428 kts | 83° |
| 2026-04-22 22:14 | 46.62798 | 24.33516 | 35124 ft | 429 kts | 83° |
| 2026-04-22 22:15 | 46.63275 | 24.42163 | 35092 ft | 429 kts | 83° |
| 2026-04-22 22:15 | 46.63750 | 24.50759 | 35100 ft | 429 kts | 83° |
| 2026-04-22 22:16 | 46.64210 | 24.59404 | 35115 ft | 428 kts | 83° |
| 2026-04-22 22:16 | 46.64666 | 24.68046 | 35116 ft | 428 kts | 83° |
| 2026-04-22 22:17 | 46.65112 | 24.76690 | 35136 ft | 428 kts | 83° |
| 2026-04-22 22:17 | 46.65554 | 24.85275 | 35134 ft | 428 kts | 83° |
| 2026-04-22 22:18 | 46.65991 | 24.93921 | 35145 ft | 428 kts | 83° |
| 2026-04-22 22:18 | 46.66424 | 25.02567 | 35150 ft | 428 kts | 83° |
| 2026-04-22 22:19 | 46.66845 | 25.11223 | 35156 ft | 429 kts | 84° |
| 2026-04-22 22:19 | 46.67251 | 25.19845 | 35131 ft | 431 kts | 84° |
| 2026-04-22 22:20 | 46.67663 | 25.28554 | 35141 ft | 432 kts | 83° |
| 2026-04-22 22:20 | 46.68073 | 25.37280 | 35142 ft | 432 kts | 83° |
| 2026-04-22 22:21 | 46.68483 | 25.46015 | 35141 ft | 432 kts | 83° |
| 2026-04-22 22:21 | 46.68881 | 25.54695 | 35145 ft | 433 kts | 84° |
| 2026-04-22 22:22 | 46.69274 | 25.63447 | 35150 ft | 433 kts | 84° |
| 2026-04-22 22:22 | 46.69651 | 25.72216 | 35147 ft | 434 kts | 84° |
| 2026-04-22 22:23 | 46.70016 | 25.80997 | 35144 ft | 434 kts | 84° |
| 2026-04-22 22:23 | 46.70390 | 25.89787 | 35128 ft | 436 kts | 84° |
| 2026-04-22 22:24 | 46.70755 | 25.98556 | 35110 ft | 438 kts | 84° |
| 2026-04-22 22:24 | 46.70937 | 26.02999 | 34461 ft | 443 kts | 84° |
| 2026-04-22 22:24 | 46.71121 | 26.07490 | 33704 ft | 445 kts | 84° |
| 2026-04-22 22:24 | 46.71302 | 26.11983 | 33095 ft | 442 kts | 83° |
| 2026-04-22 22:25 | 46.71475 | 26.16421 | 32631 ft | 436 kts | 83° |
| 2026-04-22 22:25 | 46.71641 | 26.20799 | 32203 ft | 430 kts | 83° |
| 2026-04-22 22:25 | 46.71805 | 26.25112 | 31781 ft | 423 kts | 83° |
| 2026-04-22 22:25 | 46.71963 | 26.29305 | 31378 ft | 417 kts | 83° |
| 2026-04-22 22:26 | 46.72121 | 26.33495 | 30970 ft | 411 kts | 83° |
| 2026-04-22 22:26 | 46.72278 | 26.37625 | 30566 ft | 405 kts | 83° |
| 2026-04-22 22:26 | 46.72432 | 26.41690 | 30131 ft | 399 kts | 83° |
| 2026-04-22 22:26 | 46.72581 | 26.45698 | 29613 ft | 394 kts | 83° |
| 2026-04-22 22:27 | 46.72729 | 26.49668 | 29017 ft | 391 kts | 83° |
| 2026-04-22 22:27 | 46.72876 | 26.53619 | 28271 ft | 392 kts | 83° |
| 2026-04-22 22:27 | 46.73023 | 26.57533 | 27597 ft | 392 kts | 83° |
| 2026-04-22 22:27 | 46.73165 | 26.61490 | 26975 ft | 390 kts | 83° |
| 2026-04-22 22:28 | 46.73302 | 26.65436 | 26392 ft | 388 kts | 83° |
| 2026-04-22 22:28 | 46.73437 | 26.69356 | 25792 ft | 387 kts | 83° |
| 2026-04-22 22:28 | 46.73570 | 26.73262 | 25343 ft | 383 kts | 84° |
| 2026-04-22 22:28 | 46.73699 | 26.77115 | 24942 ft | 379 kts | 84° |
| 2026-04-22 22:29 | 46.73826 | 26.80928 | 24532 ft | 375 kts | 84° |
| 2026-04-22 22:29 | 46.73951 | 26.84710 | 24129 ft | 373 kts | 84° |
| 2026-04-22 22:29 | 46.74073 | 26.88419 | 23727 ft | 371 kts | 84° |
| 2026-04-22 22:29 | 46.74195 | 26.92157 | 23270 ft | 368 kts | 84° |
| 2026-04-22 22:30 | 46.74314 | 26.95857 | 22855 ft | 363 kts | 84° |
| 2026-04-22 22:30 | 46.74430 | 26.99515 | 22442 ft | 359 kts | 84° |
| 2026-04-22 22:30 | 46.74542 | 27.03135 | 22027 ft | 355 kts | 84° |
| 2026-04-22 22:30 | 46.74823 | 27.06668 | 21603 ft | 347 kts | 74° |
| 2026-04-22 22:31 | 46.75529 | 27.09992 | 21193 ft | 340 kts | 64° |
| 2026-04-22 22:31 | 46.76427 | 27.13164 | 20787 ft | 337 kts | 65° |
| 2026-04-22 22:31 | 46.77293 | 27.16271 | 20378 ft | 334 kts | 65° |
| 2026-04-22 22:31 | 46.78152 | 27.19399 | 19973 ft | 331 kts | 65° |
| 2026-04-22 22:32 | 46.79000 | 27.22505 | 19571 ft | 328 kts | 65° |
| 2026-04-22 22:32 | 46.79841 | 27.25588 | 19161 ft | 326 kts | 65° |
| 2026-04-22 22:32 | 46.80676 | 27.28646 | 18751 ft | 323 kts | 65° |
| 2026-04-22 22:32 | 46.81505 | 27.31685 | 18358 ft | 321 kts | 65° |
| 2026-04-22 22:33 | 46.82328 | 27.34710 | 17913 ft | 319 kts | 65° |
| 2026-04-22 22:33 | 46.83133 | 27.37664 | 17531 ft | 316 kts | 65° |
| 2026-04-22 22:33 | 46.83942 | 27.40632 | 17141 ft | 313 kts | 65° |
| 2026-04-22 22:33 | 46.84742 | 27.43574 | 16756 ft | 310 kts | 65° |
| 2026-04-22 22:34 | 46.85535 | 27.46489 | 16366 ft | 307 kts | 65° |
| 2026-04-22 22:34 | 46.86323 | 27.49377 | 15989 ft | 305 kts | 65° |
| 2026-04-22 22:34 | 46.87104 | 27.52247 | 15612 ft | 303 kts | 65° |
| 2026-04-22 22:34 | 46.87880 | 27.55097 | 15231 ft | 301 kts | 65° |
| 2026-04-22 22:35 | 46.88649 | 27.57929 | 14872 ft | 299 kts | 65° |
| 2026-04-22 22:35 | 46.89404 | 27.60714 | 14493 ft | 298 kts | 65° |
| 2026-04-22 22:35 | 46.90163 | 27.63521 | 14112 ft | 296 kts | 65° |
| 2026-04-22 22:35 | 46.90915 | 27.66318 | 13733 ft | 295 kts | 65° |
| 2026-04-22 22:36 | 46.91663 | 27.69107 | 13340 ft | 293 kts | 65° |
| 2026-04-22 22:36 | 46.92405 | 27.71869 | 12981 ft | 290 kts | 65° |
| 2026-04-22 22:36 | 46.93224 | 27.74537 | 12616 ft | 284 kts | 54° |
| 2026-04-22 22:36 | 46.94512 | 27.76647 | 12273 ft | 275 kts | 35° |
| 2026-04-22 22:37 | 46.96162 | 27.77976 | 11922 ft | 270 kts | 17° |
| 2026-04-22 22:37 | 46.97965 | 27.78434 | 11583 ft | 266 kts | 359° |
| 2026-04-22 22:37 | 46.99775 | 27.78005 | 11243 ft | 264 kts | 341° |
| 2026-04-22 22:37 | 47.01407 | 27.76777 | 10909 ft | 264 kts | 330° |
| 2026-04-22 22:38 | 47.02970 | 27.75378 | 10575 ft | 263 kts | 331° |
| 2026-04-22 22:38 | 47.04529 | 27.73997 | 10238 ft | 262 kts | 331° |
| 2026-04-22 22:38 | 47.06081 | 27.72628 | 10106 ft | 263 kts | 331° |
| 2026-04-22 22:38 | 47.07659 | 27.71239 | 9993 ft | 266 kts | 331° |
| 2026-04-22 22:39 | 47.09262 | 27.69827 | 9517 ft | 270 kts | 331° |
| 2026-04-22 22:39 | 47.10838 | 27.68436 | 9223 ft | 266 kts | 331° |
| 2026-04-22 22:39 | 47.12420 | 27.67037 | 8826 ft | 265 kts | 330° |
| 2026-04-22 22:39 | 47.13996 | 27.65642 | 8453 ft | 264 kts | 330° |
| 2026-04-22 22:40 | 47.15564 | 27.64253 | 8077 ft | 262 kts | 330° |
| 2026-04-22 22:40 | 47.17119 | 27.62874 | 7703 ft | 261 kts | 330° |
| 2026-04-22 22:40 | 47.18669 | 27.61504 | 7334 ft | 259 kts | 330° |
| 2026-04-22 22:40 | 47.20209 | 27.60137 | 6957 ft | 258 kts | 330° |
| 2026-04-22 22:41 | 47.21740 | 27.58775 | 6618 ft | 256 kts | 330° |
| 2026-04-22 22:41 | 47.23242 | 27.57438 | 6271 ft | 255 kts | 330° |
| 2026-04-22 22:41 | 47.24753 | 27.56093 | 5867 ft | 253 kts | 329° |
| 2026-04-22 22:41 | 47.26258 | 27.54753 | 5373 ft | 253 kts | 329° |
| 2026-04-22 22:42 | 47.27776 | 27.53400 | 4701 ft | 259 kts | 328° |
| 2026-04-22 22:42 | 47.29311 | 27.52030 | 4268 ft | 254 kts | 328° |
| 2026-04-22 22:42 | 47.30794 | 27.50706 | 4104 ft | 244 kts | 328° |
| 2026-04-22 22:42 | 47.32216 | 27.49436 | 3993 ft | 234 kts | 328° |
| 2026-04-22 22:43 | 47.33572 | 27.48225 | 3889 ft | 222 kts | 328° |
| 2026-04-22 22:43 | 47.34712 | 27.46830 | 3766 ft | 216 kts | 302° |
| 2026-04-22 22:43 | 47.35069 | 27.44725 | 3617 ft | 218 kts | 263° |
| 2026-04-22 22:43 | 47.34388 | 27.42739 | 3472 ft | 225 kts | 223° |
| 2026-04-22 22:44 | 47.32945 | 27.41863 | 3293 ft | 232 kts | 181° |
| 2026-04-22 22:44 | 47.31427 | 27.42597 | 3140 ft | 236 kts | 139° |
| 2026-04-22 22:44 | 47.30436 | 27.44513 | 3026 ft | 238 kts | 118° |
| 2026-04-22 22:44 | 47.29713 | 27.46696 | 3023 ft | 232 kts | 112° |
| 2026-04-22 22:45 | 47.29097 | 27.48823 | 3010 ft | 226 kts | 111° |
| 2026-04-22 22:45 | 47.28502 | 27.50903 | 3017 ft | 211 kts | 112° |
| 2026-04-22 22:45 | 47.27900 | 27.52748 | 2920 ft | 192 kts | 124° |
| 2026-04-22 22:45 | 47.27010 | 27.54086 | 2660 ft | 178 kts | 146° |
| 2026-04-22 22:46 | 47.25992 | 27.55054 | 2281 ft | 171 kts | 153° |
| 2026-04-22 22:46 | 47.24983 | 27.55924 | 2000 ft | 163 kts | 154° |
| 2026-04-22 22:46 | 47.24045 | 27.56770 | 1747 ft | 155 kts | 153° |
| 2026-04-22 22:46 | 47.23135 | 27.57574 | 1464 ft | 150 kts | 153° |
| 2026-04-22 22:47 | 47.22240 | 27.58349 | 1275 ft | 148 kts | 153° |
| 2026-04-22 22:47 | 47.21379 | 27.59115 | 1069 ft | 145 kts | 150° |
| 2026-04-22 22:47 | 47.20518 | 27.59883 | 891 ft | 144 kts | 151° |
| 2026-04-22 22:47 | 47.19665 | 27.60635 | 662 ft | 142 kts | 150° |
| 2026-04-22 22:48 | 47.18824 | 27.61391 | 436 ft | 141 kts | 151° |
| 2026-04-22 22:48 | 47.18045 | 27.62080 | 376 ft | 114 kts | 149° |
| 2026-04-22 22:48 | 47.17534 | 27.62532 | 359 ft | 39 kts | 149° |
| 2026-04-22 22:48 | 47.17403 | 27.62634 | 349 ft | 13 kts | 176° |
| 2026-04-22 22:49 | 47.17341 | 27.62563 | 360 ft | 9 kts | 232° |
| 2026-04-22 22:49 | 47.17314 | 27.62505 | 362 ft | 5 kts | 239° |
| 2026-04-22 22:49 | 47.17297 | 27.62465 | 359 ft | 5 kts | 238° |
| 2026-04-22 22:49 | 47.17269 | 27.62391 | 364 ft | 12 kts | 248° |
| 2026-04-22 22:50 | 47.17299 | 27.62277 | 375 ft | 16 kts | 324° |
| 2026-04-22 22:50 | 47.17397 | 27.62188 | 373 ft | 17 kts | 328° |
| 2026-04-22 22:50 | 47.17503 | 27.62093 | 374 ft | 18 kts | 331° |
| 2026-04-22 22:50 | 47.17599 | 27.62022 | 374 ft | 7 kts | 333° |
| 2026-04-22 22:51 | 47.17607 | 27.61966 | 374 ft | 3 kts | 258° |
| 2026-04-22 22:51 | 47.17606 | 27.61938 | 374 ft | 0 kts | 271° |